Station: Newman Airport  

  Atmospheric Gas Attenuation - ITU Rec 676-11   ----------------- dB/100km -----------------
Date Time Temp RH % AH g/m3 Dew Point Wind Direction Speed kph Gust kph Barometer mB Rainfall Since 9am 24GHz 47GHz 76GHz 122GHz 134GHz 241GHz
05/05 00:50 12.6 38 4.2 -1.3 7 9 1020 0 10.3 19.8 24.2 62.6 45.9 154.2
05/05 00:40 12.8 37 4.14 -1.5 9 9 1020.2 0 10.2 19.7 23.9 61.9 45.2 151.4
05/05 00:30 13 37 4.2 -1.3 11 13 1020.2 0 10.3 19.7 24.1 62.3 45.7 153.4
05/05 00:20 13.2 36 4.13 -1.5 13 13 1020.2 0 10.1 19.6 23.8 61.5 44.8 150.3
05/05 00:10 13.2 36 4.13 -1.5 11 13 1020.3 0 10.1 19.6 23.8 61.5 44.8 150.3
05/05 00:00 13 35 3.97 -2.1 13 15 1020.3 0 9.8 19.4 23.3 60.2 43.2 144.4
04/05 23:50 12.6 35 3.87 -2.4 11 13 1020.3 0 9.6 19.4 23.1 59.6 42.3 141.1
04/05 23:40 12.5 34 3.74 -2.9 11 11 1020.3 0 9.3 19.2 22.7 58.5 40.9 136.2
04/05 23:30 12.9 34 3.83 -2.6 11 13 1020.4 0 9.5 19.3 22.9 59.0 41.7 139.1
04/05 23:20 13.2 33 3.79 -2.7 11 13 1020.4 0 9.4 19.1 22.6 58.5 41.1 137.0
04/05 23:10 13 33 3.74 -2.9 13 13 1020.3 0 9.3 19.1 22.5 58.2 40.6 135.4
04/05 23:00 13 32 3.63 -3.3 9 9 1020.4 0 9.1 19.0 22.2 57.2 39.4 131.2
04/05 22:50 13.7 31 3.67 -3.1 7 9 1020.4 0 9.1 18.9 22.1 57.1 39.5 131.6
04/05 22:40 14.1 31 3.76 -2.8 9 9 1020.4 0 9.3 18.9 22.3 57.6 40.3 134.4
04/05 22:30 14.3 31 3.81 -2.6 7 7 1020.4 0 9.4 19.0 22.4 57.9 40.7 136.0
04/05 22:20 14.8 30 3.8 -2.6 6 7 1020.5 0 9.4 18.8 22.3 57.4 40.4 134.8
04/05 22:10 15.3 29 3.79 -2.6 7 9 1020.3 0 9.4 18.7 22.1 57.0 40.0 133.6
04/05 22:00 15.4 28 3.68 -3 11 13 1020.1 0 9.1 18.6 21.7 56.0 38.8 129.3
04/05 21:50 15.7 28 3.75 -2.7 9 11 1020.1 0 9.3 18.6 21.8 56.4 39.4 131.4
04/05 21:40 16 27 3.68 -3 11 13 1020.1 0 9.1 18.4 21.5 55.6 38.5 128.3
04/05 21:30 16.2 27 3.72 -2.8 11 13 1020.2 0 9.2 18.5 21.6 55.8 38.8 129.5
04/05 21:20 16.3 27 3.75 -2.7 11 11 1020.2 0 9.2 18.5 21.7 56.0 39.1 130.5
04/05 21:10 16.5 27 3.79 -2.5 11 13 1020.3 0 9.3 18.5 21.8 56.2 39.4 131.7
04/05 21:00 16.5 27 3.79 -2.5 11 13 1020.4 0 9.3 18.5 21.8 56.2 39.4 131.7
04/05 20:50 16.6 26 3.67 -3 9 11 1020.4 0 9.1 18.3 21.4 55.1 38.1 127.1
04/05 20:40 17 26 3.76 -2.6 9 11 1020.4 0 9.2 18.4 21.5 55.6 38.9 129.8
04/05 20:30 17.5 25 3.73 -2.7 9 11 1020.5 0 9.2 18.2 21.3 55.0 38.3 127.9
04/05 20:20 17.9 25 3.82 -2.4 9 11 1020.5 0 9.4 18.3 21.5 55.5 39.1 130.6
04/05 20:10 18.1 25 3.86 -2.2 11 13 1020.3 0 9.4 18.3 21.6 55.7 39.4 131.8
04/05 20:00 17.9 25 3.82 -2.4 13 15 1020.2 0 9.4 18.3 21.5 55.5 39.1 130.6
04/05 19:50 17.6 26 3.9 -2.1 11 13 1020.1 0 9.5 18.4 21.8 56.3 40.1 134.0
04/05 19:40 18.1 25 3.86 -2.2 7 9 1020.1 0 9.4 18.3 21.6 55.7 39.4 131.7
04/05 19:30 18.5 24 3.8 -2.4 11 11 1019.9 0 9.3 18.1 21.3 54.9 38.6 128.9
04/05 19:20 19.1 24 3.93 -1.9 11 11 1019.7 0 9.5 18.1 21.5 55.6 39.6 132.7
04/05 19:10 19.5 23 3.86 -2.2 9 11 1019.7 0 9.4 18.0 21.2 54.7 38.7 129.5
04/05 19:00 20 23 3.97 -1.7 9 11 1019.6 0 9.6 18.0 21.4 55.3 39.6 132.7
04/05 18:50 20.3 22 3.87 -2.1 11 13 1019.3 0 9.4 17.8 21.0 54.3 38.4 128.6
04/05 18:40 20.8 22 3.98 -1.7 11 13 1019.2 0 9.6 17.9 21.2 54.8 39.3 131.7
04/05 18:30 21.2 21 3.89 -2 13 15 1019.1 0 9.4 17.7 20.9 53.8 38.2 127.9
04/05 18:20 21.5 21 3.96 -1.7 13 13 1019 0 9.5 17.7 21.0 54.2 38.8 129.9
04/05 18:10 21.9 21 4.05 -1.4 11 13 1018.9 0 9.7 17.7 21.2 54.6 39.5 132.5
04/05 18:00 22.3 21 4.15 -1.1 13 17 1018.9 0 9.9 17.8 21.4 55.2 40.3 135.4
04/05 17:50 22.5 20 3.99 -1.6 15 19 1018.8 0 9.6 17.6 20.8 53.8 38.6 129.4
04/05 17:40 22.9 20 4.09 -1.2 17 20 1018.6 0 9.8 17.6 21.0 54.3 39.4 132.3
04/05 17:30 23.2 20 4.16 -1 17 26 1018.5 0 9.9 17.6 21.2 54.7 39.9 134.2
04/05 17:20 23.5 20 4.23 -0.7 19 20 1018.3 0 10.0 17.7 21.3 55.0 40.5 136.2
04/05 17:10 23.7 20 4.28 -0.6 17 22 1018.2 0 10.1 17.7 21.4 55.3 40.9 137.6
04/05 17:00 23.9 20 4.33 -0.4 17 22 1018.1 0 10.2 17.7 21.5 55.5 41.3 139.0
04/05 16:50 24.2 20 4.4 -0.2 19 22 1018.1 0 10.4 17.7 21.6 55.9 41.8 140.9
04/05 16:40 24.2 20 4.4 -0.2 20 22 1018.1 0 10.4 17.7 21.6 55.9 41.8 140.9
04/05 16:30 24.3 19 4.2 -0.8 17 24 1018 0 10.0 17.5 21.0 54.2 39.8 133.8
04/05 16:20 24.3 20 4.43 -0.1 17 19 1017.8 0 10.4 17.7 21.7 56.0 42.0 141.7
04/05 16:10 24.4 20 4.45 0 19 20 1017.8 0 10.5 17.7 21.7 56.1 42.2 142.3
04/05 16:00 24.6 20 4.5 0.2 20 30 1017.8 0 10.6 17.8 21.8 56.4 42.6 143.7
04/05 15:50 24.4 20 4.45 0 20 24 1017.8 0 10.5 17.7 21.7 56.1 42.2 142.3
04/05 15:40 24.9 19 4.35 -0.3 13 15 1017.8 0 10.3 17.5 21.3 55.0 41.0 138.0
04/05 15:30 24.4 20 4.45 0 17 28 1017.9 0 10.5 17.7 21.7 56.1 42.2 142.3
04/05 15:20 24.8 20 4.55 0.3 19 24 1017.7 0 10.7 17.8 21.9 56.7 43.0 145.0
04/05 15:10 24.8 20 4.55 0.3 13 15 1017.8 0 10.7 17.8 21.9 56.7 43.0 145.0
04/05 15:00 24.4 20 4.45 0 19 28 1017.9 0 10.5 17.7 21.7 56.1 42.2 142.3
04/05 14:50 24.7 20 4.53 0.3 17 24 1017.8 0 10.6 17.8 21.9 56.6 42.8 144.5
04/05 14:40 24.6 20 4.5 0.2 13 19 1018 0 10.6 17.8 21.8 56.4 42.6 143.7
04/05 14:30 24.6 20 4.5 0.2 19 28 1018 0 10.6 17.8 21.8 56.4 42.6 143.7
04/05 14:20 24 20 4.35 -0.3 26 30 1018.1 0 10.3 17.7 21.5 55.6 41.4 139.5
04/05 14:10 24.4 21 4.67 0.7 15 20 1018.2 0 10.9 18.0 22.4 57.9 44.4 150.0
04/05 14:00 23.7 21 4.49 0.1 17 28 1018.3 0 10.6 17.9 22.0 57.0 42.9 144.9
04/05 13:50 24.4 20 4.45 0 20 20 1018.3 0 10.5 17.8 21.7 56.2 42.2 142.3
04/05 13:40 23.9 21 4.54 0.3 17 19 1018.4 0 10.7 18.0 22.1 57.2 43.3 146.3
04/05 13:30 23.4 21 4.42 -0.1 19 26 1018.5 0 10.4 17.9 21.9 56.6 42.4 143.0
04/05 13:20 23.7 21 4.49 0.1 19 22 1018.5 0 10.6 17.9 22.0 57.0 43.0 144.9
04/05 13:10 23.8 21 4.52 0.2 13 15 1018.6 0 10.6 18.0 22.1 57.2 43.2 145.8
04/05 13:00 23.6 23 4.89 1.3 19 33 1018.8 0 11.4 18.5 23.3 60.3 47.0 159.3
04/05 12:50 23.1 22 4.55 0.2 20 24 1019 0 10.7 18.1 22.4 57.9 43.9 148.1
04/05 12:40 23.1 23 4.75 0.9 17 20 1019.2 0 11.1 18.4 23.0 59.5 45.9 155.3
04/05 12:30 22.7 23 4.65 0.5 19 28 1019.6 0 10.9 18.4 22.8 59.0 45.1 152.5
04/05 12:20 23 23 4.73 0.8 17 22 1019.8 0 11.1 18.4 23.0 59.5 45.8 154.8
04/05 12:10 22.3 24 4.74 0.8 17 20 1020 0 11.1 18.6 23.2 60.1 46.3 156.5
04/05 12:00 22.4 24 4.77 0.9 17 26 1020.2 0 11.2 18.6 23.3 60.3 46.5 157.4
04/05 11:50 22 24 4.66 0.5 13 17 1020.4 0 11.0 18.5 23.0 59.7 45.7 154.2
04/05 11:40 22 24 4.66 0.5 13 19 1020.6 0 11.0 18.5 23.1 59.7 45.7 154.2
04/05 11:30 22 25 4.85 1.1 19 28 1020.8 0 11.4 18.8 23.6 61.3 47.6 161.2
04/05 11:20 21.3 26 4.85 1 19 20 1021 0 11.4 18.9 23.8 61.8 48.0 162.5
04/05 11:10 21.1 26 4.79 0.9 20 22 1021.2 0 11.3 18.9 23.7 61.5 47.5 160.7
04/05 11:00 21 26 4.76 0.8 19 30 1021.5 0 11.2 18.9 23.7 61.3 47.3 159.9
04/05 10:50 21.1 27 4.97 1.4 20 26 1021.7 0 11.7 19.1 24.3 63.0 49.4 167.4
04/05 10:40 20.8 27 4.89 1.1 17 20 1021.8 0 11.5 19.1 24.1 62.6 48.8 165.1
04/05 10:30 20.7 27 4.86 1.1 20 33 1021.9 0 11.4 19.1 24.1 62.4 48.5 164.2
04/05 10:20 20.4 28 4.95 1.3 17 24 1022 0 11.6 19.3 24.5 63.4 49.7 168.1
04/05 10:10 20.1 29 5.04 1.5 17 26 1022 0 11.8 19.5 24.8 64.4 50.8 172.1
04/05 10:00 19.7 29 4.92 1.2 22 28 1022 0 11.6 19.4 24.6 63.7 49.8 168.4
04/05 09:50 19.7 29 4.92 1.2 22 32 1022.1 0 11.6 19.4 24.6 63.7 49.8 168.4
04/05 09:40 19.1 30 4.92 1.1 20 24 1022.2 0 11.6 19.5 24.7 64.2 50.1 169.7
04/05 09:30 19.3 30 4.98 1.3 22 32 1022.2 0 11.7 19.5 24.9 64.5 50.7 171.5
04/05 09:20 18.9 31 5.02 1.4 26 32 1022.4 0 11.8 19.7 25.1 65.2 51.4 173.9
04/05 09:10 18.4 32 5.03 1.4 19 28 1022.4 0 11.9 19.8 25.3 65.7 51.8 175.3
04/05 09:00 18.2 32 4.97 1.3 22 32 1022.4 0 11.7 19.8 25.2 65.3 51.2 173.5
04/05 08:50 17.9 33 5.04 1.4 24 28 1022.3 0 11.9 19.9 25.5 66.2 52.2 176.8
04/05 08:40 17.6 33 4.95 1.2 24 30 1022.3 0 11.7 19.9 25.3 65.6 51.4 173.9
04/05 08:30 17.6 34 5.1 1.6 24 32 1022.2 0 12.0 20.1 25.8 66.9 53.0 179.7
04/05 08:20 17 35 5.06 1.4 22 28 1022.3 0 12.0 20.1 25.8 67.1 53.0 179.5

Last Refresh: 05-May-2026 02:21:16

Bureau of Meteorology